sensor_id;sensor_type;location;lat;lon;timestamp;temperature;humidity
30379;DHT22;17168;49.164;9.060;2023-02-13T00:00:55;5.90;84.60
30379;DHT22;17168;49.164;9.060;2023-02-13T00:03:27;5.90;84.80
30379;DHT22;17168;49.164;9.060;2023-02-13T00:05:59;5.90;85.10
30379;DHT22;17168;49.164;9.060;2023-02-13T00:08:31;5.90;85.30
30379;DHT22;17168;49.164;9.060;2023-02-13T00:11:05;5.90;85.60
30379;DHT22;17168;49.164;9.060;2023-02-13T00:13:40;5.90;85.50
30379;DHT22;17168;49.164;9.060;2023-02-13T00:16:12;5.90;85.70
30379;DHT22;17168;49.164;9.060;2023-02-13T00:18:48;5.90;85.80
30379;DHT22;17168;49.164;9.060;2023-02-13T00:21:20;5.90;86.00
30379;DHT22;17168;49.164;9.060;2023-02-13T00:23:52;5.90;86.10
30379;DHT22;17168;49.164;9.060;2023-02-13T00:26:28;5.90;86.20
30379;DHT22;17168;49.164;9.060;2023-02-13T00:29:02;5.90;86.10
30379;DHT22;17168;49.164;9.060;2023-02-13T00:31:35;5.90;86.10
30379;DHT22;17168;49.164;9.060;2023-02-13T00:34:07;5.90;86.10
30379;DHT22;17168;49.164;9.060;2023-02-13T00:36:39;5.90;86.20
30379;DHT22;17168;49.164;9.060;2023-02-13T00:39:11;5.80;86.40
30379;DHT22;17168;49.164;9.060;2023-02-13T00:41:46;5.90;86.50
30379;DHT22;17168;49.164;9.060;2023-02-13T00:44:18;5.80;86.80
30379;DHT22;17168;49.164;9.060;2023-02-13T00:46:50;5.80;87.20
30379;DHT22;17168;49.164;9.060;2023-02-13T00:49:22;5.80;87.10
30379;DHT22;17168;49.164;9.060;2023-02-13T00:51:54;5.90;89.50
30379;DHT22;17168;49.164;9.060;2023-02-13T00:54:26;5.90;89.00
30379;DHT22;17168;49.164;9.060;2023-02-13T00:57:01;5.90;89.80
30379;DHT22;17168;49.164;9.060;2023-02-13T00:59:33;5.90;88.20
30379;DHT22;17168;49.164;9.060;2023-02-13T01:02:05;5.90;88.50
30379;DHT22;17168;49.164;9.060;2023-02-13T01:04:37;5.90;88.60
30379;DHT22;17168;49.164;9.060;2023-02-13T01:07:09;5.90;88.80
30379;DHT22;17168;49.164;9.060;2023-02-13T01:09:41;5.90;89.00
30379;DHT22;17168;49.164;9.060;2023-02-13T01:12:16;5.90;89.20
30379;DHT22;17168;49.164;9.060;2023-02-13T01:14:48;5.90;89.60
30379;DHT22;17168;49.164;9.060;2023-02-13T01:17:20;5.90;89.70
30379;DHT22;17168;49.164;9.060;2023-02-13T01:19:53;5.90;90.00
30379;DHT22;17168;49.164;9.060;2023-02-13T01:22:25;6.00;90.10
30379;DHT22;17168;49.164;9.060;2023-02-13T01:24:57;6.00;90.20
30379;DHT22;17168;49.164;9.060;2023-02-13T01:27:32;6.00;90.30
30379;DHT22;17168;49.164;9.060;2023-02-13T01:30:06;6.00;90.40
30379;DHT22;17168;49.164;9.060;2023-02-13T01:32:43;6.10;90.40
30379;DHT22;17168;49.164;9.060;2023-02-13T01:35:16;6.10;90.70
30379;DHT22;17168;49.164;9.060;2023-02-13T01:37:48;6.10;90.60
30379;DHT22;17168;49.164;9.060;2023-02-13T01:40:20;6.10;90.60
30379;DHT22;17168;49.164;9.060;2023-02-13T01:42:55;6.10;90.70
30379;DHT22;17168;49.164;9.060;2023-02-13T01:45:29;6.20;90.80
30379;DHT22;17168;49.164;9.060;2023-02-13T01:50:38;6.10;90.60
30379;DHT22;17168;49.164;9.060;2023-02-13T01:53:15;6.20;91.10
30379;DHT22;17168;49.164;9.060;2023-02-13T01:55:50;6.20;90.90
30379;DHT22;17168;49.164;9.060;2023-02-13T01:58:28;6.10;91.00
30379;DHT22;17168;49.164;9.060;2023-02-13T02:01:02;6.20;91.10
30379;DHT22;17168;49.164;9.060;2023-02-13T02:03:36;6.20;91.10
30379;DHT22;17168;49.164;9.060;2023-02-13T02:06:13;6.20;91.10
30379;DHT22;17168;49.164;9.060;2023-02-13T02:08:48;6.20;91.10
30379;DHT22;17168;49.164;9.060;2023-02-13T02:11:31;6.20;91.10
30379;DHT22;17168;49.164;9.060;2023-02-13T02:14:08;6.20;91.10
30379;DHT22;17168;49.164;9.060;2023-02-13T02:16:40;6.10;91.00
30379;DHT22;17168;49.164;9.060;2023-02-13T02:19:17;6.20;91.00
30379;DHT22;17168;49.164;9.060;2023-02-13T02:22:27;6.10;91.10
30379;DHT22;17168;49.164;9.060;2023-02-13T02:28:58;6.00;91.20
30379;DHT22;17168;49.164;9.060;2023-02-13T02:34:49;6.00;91.10
30379;DHT22;17168;49.164;9.060;2023-02-13T02:37:36;6.00;91.10
30379;DHT22;17168;49.164;9.060;2023-02-13T02:40:19;6.00;91.10
30379;DHT22;17168;49.164;9.060;2023-02-13T02:43:15;5.90;91.20
30379;DHT22;17168;49.164;9.060;2023-02-13T02:45:52;5.90;91.40
30379;DHT22;17168;49.164;9.060;2023-02-13T02:48:28;5.90;91.40
30379;DHT22;17168;49.164;9.060;2023-02-13T02:51:24;5.90;91.50
30379;DHT22;17168;49.164;9.060;2023-02-13T02:54:03;5.90;91.70
30379;DHT22;17168;49.164;9.060;2023-02-13T02:57:02;5.90;91.80
30379;DHT22;17168;49.164;9.060;2023-02-13T02:59:36;5.80;91.90
30379;DHT22;17168;49.164;9.060;2023-02-13T03:02:30;5.80;92.00
30379;DHT22;17168;49.164;9.060;2023-02-13T03:05:24;5.80;92.10
30379;DHT22;17168;49.164;9.060;2023-02-13T03:08:19;5.80;92.20
30379;DHT22;17168;49.164;9.060;2023-02-13T03:11:11;5.80;92.40
30379;DHT22;17168;49.164;9.060;2023-02-13T03:14:03;5.80;92.30
30379;DHT22;17168;49.164;9.060;2023-02-13T03:16:37;5.80;92.30
30379;DHT22;17168;49.164;9.060;2023-02-13T03:19:37;5.80;92.40
30379;DHT22;17168;49.164;9.060;2023-02-13T03:22:36;5.80;92.60
30379;DHT22;17168;49.164;9.060;2023-02-13T03:25:19;5.80;92.60
30379;DHT22;17168;49.164;9.060;2023-02-13T03:28:08;5.80;92.60
30379;DHT22;17168;49.164;9.060;2023-02-13T03:31:09;5.80;92.70
30379;DHT22;17168;49.164;9.060;2023-02-13T03:33:55;5.80;92.70
30379;DHT22;17168;49.164;9.060;2023-02-13T03:36:34;5.70;92.80
30379;DHT22;17168;49.164;9.060;2023-02-13T03:39:41;5.70;92.90
30379;DHT22;17168;49.164;9.060;2023-02-13T03:42:22;5.70;93.00
30379;DHT22;17168;49.164;9.060;2023-02-13T03:45:02;5.70;93.10
30379;DHT22;17168;49.164;9.060;2023-02-13T03:47:56;5.60;93.10
30379;DHT22;17168;49.164;9.060;2023-02-13T03:50:28;5.60;93.10
30379;DHT22;17168;49.164;9.060;2023-02-13T03:53:03;5.60;93.10
30379;DHT22;17168;49.164;9.060;2023-02-13T03:55:40;5.60;93.30
30379;DHT22;17168;49.164;9.060;2023-02-13T03:58:36;5.50;93.40
30379;DHT22;17168;49.164;9.060;2023-02-13T04:01:31;5.50;93.60
30379;DHT22;17168;49.164;9.060;2023-02-13T04:04:09;5.50;93.70
30379;DHT22;17168;49.164;9.060;2023-02-13T04:06:45;5.50;94.00
30379;DHT22;17168;49.164;9.060;2023-02-13T04:09:19;5.40;94.10
30379;DHT22;17168;49.164;9.060;2023-02-13T04:11:57;5.40;94.20
30379;DHT22;17168;49.164;9.060;2023-02-13T04:14:36;5.40;94.40
30379;DHT22;17168;49.164;9.060;2023-02-13T04:17:13;5.30;94.50
30379;DHT22;17168;49.164;9.060;2023-02-13T04:19:46;5.30;94.60
30379;DHT22;17168;49.164;9.060;2023-02-13T04:22:18;5.30;94.70
30379;DHT22;17168;49.164;9.060;2023-02-13T04:24:51;5.30;94.80
30379;DHT22;17168;49.164;9.060;2023-02-13T04:27:25;5.30;94.90
30379;DHT22;17168;49.164;9.060;2023-02-13T04:30:00;5.40;95.00
30379;DHT22;17168;49.164;9.060;2023-02-13T04:32:32;5.40;95.00
30379;DHT22;17168;49.164;9.060;2023-02-13T04:35:05;5.40;95.00
30379;DHT22;17168;49.164;9.060;2023-02-13T04:37:37;5.40;95.10
30379;DHT22;17168;49.164;9.060;2023-02-13T04:40:10;5.40;95.10
30379;DHT22;17168;49.164;9.060;2023-02-13T04:42:42;5.40;95.40
30379;DHT22;17168;49.164;9.060;2023-02-13T04:45:16;5.40;95.20
30379;DHT22;17168;49.164;9.060;2023-02-13T04:47:49;5.40;95.30
30379;DHT22;17168;49.164;9.060;2023-02-13T04:50:22;5.40;95.40
30379;DHT22;17168;49.164;9.060;2023-02-13T04:52:56;5.40;95.40
30379;DHT22;17168;49.164;9.060;2023-02-13T04:55:28;5.40;95.50
30379;DHT22;17168;49.164;9.060;2023-02-13T04:58:00;5.40;95.50
30379;DHT22;17168;49.164;9.060;2023-02-13T05:00:35;5.40;95.60
30379;DHT22;17168;49.164;9.060;2023-02-13T05:03:10;5.40;95.60
30379;DHT22;17168;49.164;9.060;2023-02-13T05:05:42;5.40;95.60
30379;DHT22;17168;49.164;9.060;2023-02-13T05:08:15;5.40;95.60
30379;DHT22;17168;49.164;9.060;2023-02-13T05:10:47;5.40;95.60
30379;DHT22;17168;49.164;9.060;2023-02-13T05:13:20;5.40;95.50
30379;DHT22;17168;49.164;9.060;2023-02-13T05:15:55;5.40;95.60
30379;DHT22;17168;49.164;9.060;2023-02-13T05:18:27;5.40;95.60
30379;DHT22;17168;49.164;9.060;2023-02-13T05:20:59;5.30;95.70
30379;DHT22;17168;49.164;9.060;2023-02-13T05:23:49;5.30;95.70
30379;DHT22;17168;49.164;9.060;2023-02-13T05:26:22;5.30;95.70
30379;DHT22;17168;49.164;9.060;2023-02-13T05:28:54;5.30;95.80
30379;DHT22;17168;49.164;9.060;2023-02-13T05:31:47;5.30;95.80
30379;DHT22;17168;49.164;9.060;2023-02-13T05:34:20;5.30;95.90
30379;DHT22;17168;49.164;9.060;2023-02-13T05:36:53;5.30;95.90
30379;DHT22;17168;49.164;9.060;2023-02-13T05:39:25;5.20;95.90
30379;DHT22;17168;49.164;9.060;2023-02-13T05:41:57;5.20;95.90
30379;DHT22;17168;49.164;9.060;2023-02-13T05:44:29;5.20;95.80
30379;DHT22;17168;49.164;9.060;2023-02-13T05:47:04;5.20;95.80
30379;DHT22;17168;49.164;9.060;2023-02-13T05:49:48;5.10;95.80
30379;DHT22;17168;49.164;9.060;2023-02-13T05:52:20;5.10;95.90
30379;DHT22;17168;49.164;9.060;2023-02-13T05:54:52;5.10;95.90
30379;DHT22;17168;49.164;9.060;2023-02-13T05:57:24;5.10;95.90
30379;DHT22;17168;49.164;9.060;2023-02-13T05:59:56;5.10;95.90
30379;DHT22;17168;49.164;9.060;2023-02-13T06:02:31;5.10;96.00
30379;DHT22;17168;49.164;9.060;2023-02-13T06:05:04;5.10;96.00
30379;DHT22;17168;49.164;9.060;2023-02-13T06:07:36;5.00;95.90
30379;DHT22;17168;49.164;9.060;2023-02-13T06:10:09;5.00;95.90
30379;DHT22;17168;49.164;9.060;2023-02-13T06:12:42;5.00;95.90
30379;DHT22;17168;49.164;9.060;2023-02-13T06:15:14;5.00;95.90
30379;DHT22;17168;49.164;9.060;2023-02-13T06:17:49;5.00;95.90
30379;DHT22;17168;49.164;9.060;2023-02-13T06:20:21;5.00;95.90
30379;DHT22;17168;49.164;9.060;2023-02-13T06:22:53;5.00;95.80
30379;DHT22;17168;49.164;9.060;2023-02-13T06:25:28;5.00;95.80
30379;DHT22;17168;49.164;9.060;2023-02-13T06:28:00;5.00;95.80
30379;DHT22;17168;49.164;9.060;2023-02-13T06:30:32;5.00;96.00
30379;DHT22;17168;49.164;9.060;2023-02-13T06:33:07;4.90;95.90
30379;DHT22;17168;49.164;9.060;2023-02-13T06:35:39;5.00;95.90
30379;DHT22;17168;49.164;9.060;2023-02-13T06:38:11;4.90;96.00
30379;DHT22;17168;49.164;9.060;2023-02-13T06:40:43;4.90;96.00
30379;DHT22;17168;49.164;9.060;2023-02-13T06:43:16;4.90;96.10
30379;DHT22;17168;49.164;9.060;2023-02-13T06:45:48;4.90;96.20
30379;DHT22;17168;49.164;9.060;2023-02-13T06:48:25;4.80;96.20
30379;DHT22;17168;49.164;9.060;2023-02-13T06:50:56;4.80;96.20
30379;DHT22;17168;49.164;9.060;2023-02-13T06:53:29;4.80;96.30
30379;DHT22;17168;49.164;9.060;2023-02-13T06:56:03;4.80;96.30
30379;DHT22;17168;49.164;9.060;2023-02-13T06:58:37;4.80;96.40
30379;DHT22;17168;49.164;9.060;2023-02-13T07:01:11;4.70;96.30
30379;DHT22;17168;49.164;9.060;2023-02-13T07:03:45;4.70;96.40
30379;DHT22;17168;49.164;9.060;2023-02-13T07:06:19;4.70;96.40
30379;DHT22;17168;49.164;9.060;2023-02-13T07:08:51;4.70;96.40
30379;DHT22;17168;49.164;9.060;2023-02-13T07:11:26;4.60;96.40
30379;DHT22;17168;49.164;9.060;2023-02-13T07:13:58;4.60;96.40
30379;DHT22;17168;49.164;9.060;2023-02-13T07:16:31;4.60;96.40
30379;DHT22;17168;49.164;9.060;2023-02-13T07:19:05;4.60;96.40
30379;DHT22;17168;49.164;9.060;2023-02-13T07:21:37;4.50;96.40
30379;DHT22;17168;49.164;9.060;2023-02-13T07:24:09;4.50;96.40
30379;DHT22;17168;49.164;9.060;2023-02-13T07:26:41;4.50;96.40
30379;DHT22;17168;49.164;9.060;2023-02-13T07:29:13;4.50;96.50
30379;DHT22;17168;49.164;9.060;2023-02-13T07:31:45;4.50;96.30
30379;DHT22;17168;49.164;9.060;2023-02-13T07:34:19;4.50;96.30
30379;DHT22;17168;49.164;9.060;2023-02-13T07:36:51;4.50;96.40
30379;DHT22;17168;49.164;9.060;2023-02-13T07:39:23;4.50;96.40
30379;DHT22;17168;49.164;9.060;2023-02-13T07:41:54;4.50;96.50
30379;DHT22;17168;49.164;9.060;2023-02-13T07:44:26;4.40;96.40
30379;DHT22;17168;49.164;9.060;2023-02-13T07:46:58;4.50;96.50
30379;DHT22;17168;49.164;9.060;2023-02-13T07:49:34;4.50;96.60
30379;DHT22;17168;49.164;9.060;2023-02-13T07:52:07;4.40;96.60
30379;DHT22;17168;49.164;9.060;2023-02-13T07:54:39;4.50;96.70
30379;DHT22;17168;49.164;9.060;2023-02-13T07:57:18;4.50;96.80
30379;DHT22;17168;49.164;9.060;2023-02-13T07:59:50;4.40;96.70
30379;DHT22;17168;49.164;9.060;2023-02-13T08:02:22;4.40;96.70
30379;DHT22;17168;49.164;9.060;2023-02-13T08:04:56;4.40;96.80
30379;DHT22;17168;49.164;9.060;2023-02-13T08:07:28;4.40;96.90
30379;DHT22;17168;49.164;9.060;2023-02-13T08:10:00;4.40;96.90
30379;DHT22;17168;49.164;9.060;2023-02-13T08:12:50;4.40;96.90
30379;DHT22;17168;49.164;9.060;2023-02-13T08:15:22;4.50;97.00
30379;DHT22;17168;49.164;9.060;2023-02-13T08:17:54;4.40;96.90
30379;DHT22;17168;49.164;9.060;2023-02-13T08:20:29;4.40;96.90
30379;DHT22;17168;49.164;9.060;2023-02-13T08:23:02;4.40;96.90
30379;DHT22;17168;49.164;9.060;2023-02-13T08:25:35;4.40;96.90
30379;DHT22;17168;49.164;9.060;2023-02-13T08:28:07;4.40;97.00
30379;DHT22;17168;49.164;9.060;2023-02-13T08:30:39;4.40;97.10
30379;DHT22;17168;49.164;9.060;2023-02-13T08:33:12;4.40;97.20
30379;DHT22;17168;49.164;9.060;2023-02-13T08:35:46;4.40;97.20
30379;DHT22;17168;49.164;9.060;2023-02-13T08:38:18;4.40;97.20
30379;DHT22;17168;49.164;9.060;2023-02-13T08:40:50;4.40;97.30
30379;DHT22;17168;49.164;9.060;2023-02-13T08:43:21;4.40;97.20
30379;DHT22;17168;49.164;9.060;2023-02-13T08:45:56;4.40;97.30
30379;DHT22;17168;49.164;9.060;2023-02-13T08:48:28;4.50;97.40
30379;DHT22;17168;49.164;9.060;2023-02-13T08:51:07;4.50;97.60
30379;DHT22;17168;49.164;9.060;2023-02-13T08:53:39;4.60;97.70
30379;DHT22;17168;49.164;9.060;2023-02-13T08:56:11;4.70;97.80
30379;DHT22;17168;49.164;9.060;2023-02-13T08:58:43;4.70;97.70
30379;DHT22;17168;49.164;9.060;2023-02-13T09:01:15;4.70;97.60
30379;DHT22;17168;49.164;9.060;2023-02-13T09:03:47;4.80;97.60
30379;DHT22;17168;49.164;9.060;2023-02-13T09:06:21;4.80;97.60
30379;DHT22;17168;49.164;9.060;2023-02-13T09:08:53;4.80;97.70
30379;DHT22;17168;49.164;9.060;2023-02-13T09:11:25;4.80;97.70
30379;DHT22;17168;49.164;9.060;2023-02-13T09:13:57;4.80;97.70
30379;DHT22;17168;49.164;9.060;2023-02-13T09:16:29;4.90;97.80
30379;DHT22;17168;49.164;9.060;2023-02-13T09:19:01;4.90;97.70
30379;DHT22;17168;49.164;9.060;2023-02-13T09:21:35;4.90;97.70
30379;DHT22;17168;49.164;9.060;2023-02-13T09:24:07;4.90;97.70
30379;DHT22;17168;49.164;9.060;2023-02-13T09:26:39;4.90;97.80
30379;DHT22;17168;49.164;9.060;2023-02-13T09:29:11;5.00;97.80
30379;DHT22;17168;49.164;9.060;2023-02-13T09:31:43;5.00;97.70
30379;DHT22;17168;49.164;9.060;2023-02-13T09:34:15;5.00;97.70
30379;DHT22;17168;49.164;9.060;2023-02-13T09:36:52;5.10;97.90
30379;DHT22;17168;49.164;9.060;2023-02-13T09:39:24;5.10;98.00
30379;DHT22;17168;49.164;9.060;2023-02-13T09:41:56;5.10;97.90
30379;DHT22;17168;49.164;9.060;2023-02-13T09:44:30;5.20;98.00
30379;DHT22;17168;49.164;9.060;2023-02-13T09:47:06;5.20;98.20
30379;DHT22;17168;49.164;9.060;2023-02-13T09:49:43;5.30;98.30
30379;DHT22;17168;49.164;9.060;2023-02-13T09:52:17;5.40;98.40
30379;DHT22;17168;49.164;9.060;2023-02-13T09:54:49;5.40;98.40
30379;DHT22;17168;49.164;9.060;2023-02-13T09:57:27;5.50;98.50
30379;DHT22;17168;49.164;9.060;2023-02-13T10:00:03;5.60;98.60
30379;DHT22;17168;49.164;9.060;2023-02-13T10:02:45;5.70;98.50
30379;DHT22;17168;49.164;9.060;2023-02-13T10:05:22;5.70;98.50
30379;DHT22;17168;49.164;9.060;2023-02-13T10:08:02;5.80;98.30
30379;DHT22;17168;49.164;9.060;2023-02-13T10:10:37;5.80;98.20
30379;DHT22;17168;49.164;9.060;2023-02-13T10:13:15;5.90;98.10
30379;DHT22;17168;49.164;9.060;2023-02-13T10:15:56;5.90;98.10
30379;DHT22;17168;49.164;9.060;2023-02-13T10:18:33;6.00;98.10
30379;DHT22;17168;49.164;9.060;2023-02-13T10:21:08;6.00;98.10
30379;DHT22;17168;49.164;9.060;2023-02-13T10:23:44;6.00;98.00
30379;DHT22;17168;49.164;9.060;2023-02-13T10:26:18;6.00;97.90
30379;DHT22;17168;49.164;9.060;2023-02-13T10:28:51;6.10;97.80
30379;DHT22;17168;49.164;9.060;2023-02-13T10:31:45;6.10;97.80
30379;DHT22;17168;49.164;9.060;2023-02-13T10:34:19;6.10;97.80
30379;DHT22;17168;49.164;9.060;2023-02-13T10:36:52;6.10;97.90
30379;DHT22;17168;49.164;9.060;2023-02-13T10:39:28;6.20;97.90
30379;DHT22;17168;49.164;9.060;2023-02-13T10:42:05;6.20;98.00
30379;DHT22;17168;49.164;9.060;2023-02-13T10:44:48;6.30;98.00
30379;DHT22;17168;49.164;9.060;2023-02-13T10:47:26;6.40;98.00
30379;DHT22;17168;49.164;9.060;2023-02-13T10:50:14;6.40;98.00
30379;DHT22;17168;49.164;9.060;2023-02-13T10:52:54;6.40;98.00
30379;DHT22;17168;49.164;9.060;2023-02-13T10:55:50;6.50;98.10
30379;DHT22;17168;49.164;9.060;2023-02-13T10:58:26;6.50;98.20
30379;DHT22;17168;49.164;9.060;2023-02-13T11:01:04;6.60;98.30
30379;DHT22;17168;49.164;9.060;2023-02-13T11:03:39;6.70;98.40
30379;DHT22;17168;49.164;9.060;2023-02-13T11:06:11;6.70;98.40
30379;DHT22;17168;49.164;9.060;2023-02-13T11:08:46;6.80;98.40
30379;DHT22;17168;49.164;9.060;2023-02-13T11:11:30;6.90;98.40
30379;DHT22;17168;49.164;9.060;2023-02-13T11:14:09;6.90;98.50
30379;DHT22;17168;49.164;9.060;2023-02-13T11:16:55;7.00;98.40
30379;DHT22;17168;49.164;9.060;2023-02-13T11:19:33;7.10;98.60
30379;DHT22;17168;49.164;9.060;2023-02-13T11:22:07;7.10;98.60
30379;DHT22;17168;49.164;9.060;2023-02-13T11:24:40;7.20;98.70
30379;DHT22;17168;49.164;9.060;2023-02-13T11:27:15;7.30;98.70
30379;DHT22;17168;49.164;9.060;2023-02-13T11:29:55;7.40;98.70
30379;DHT22;17168;49.164;9.060;2023-02-13T11:32:29;7.50;98.80
30379;DHT22;17168;49.164;9.060;2023-02-13T11:35:25;7.50;98.80
30379;DHT22;17168;49.164;9.060;2023-02-13T11:38:10;7.60;98.80
30379;DHT22;17168;49.164;9.060;2023-02-13T11:40:43;7.70;98.90
30379;DHT22;17168;49.164;9.060;2023-02-13T11:43:22;7.80;99.00
30379;DHT22;17168;49.164;9.060;2023-02-13T11:46:05;7.90;99.10
30379;DHT22;17168;49.164;9.060;2023-02-13T11:48:37;8.10;99.60
30379;DHT22;17168;49.164;9.060;2023-02-13T11:51:10;8.20;99.90
30379;DHT22;17168;49.164;9.060;2023-02-13T11:53:42;8.40;99.90
30379;DHT22;17168;49.164;9.060;2023-02-13T11:56:14;8.60;99.90
30379;DHT22;17168;49.164;9.060;2023-02-13T11:58:49;8.90;99.90
30379;DHT22;17168;49.164;9.060;2023-02-13T12:04:06;9.60;99.90
30379;DHT22;17168;49.164;9.060;2023-02-13T12:06:38;10.00;99.90
30379;DHT22;17168;49.164;9.060;2023-02-13T12:09:11;10.50;99.90
30379;DHT22;17168;49.164;9.060;2023-02-13T12:11:47;11.40;99.90
30379;DHT22;17168;49.164;9.060;2023-02-13T12:14:25;11.70;99.90
30379;DHT22;17168;49.164;9.060;2023-02-13T12:17:00;12.40;99.90
30379;DHT22;17168;49.164;9.060;2023-02-13T12:19:39;13.00;99.90
30379;DHT22;17168;49.164;9.060;2023-02-13T12:22:21;13.70;99.90
30379;DHT22;17168;49.164;9.060;2023-02-13T12:28:08;15.30;98.00
30379;DHT22;17168;49.164;9.060;2023-02-13T12:33:58;16.60;94.40
30379;DHT22;17168;49.164;9.060;2023-02-13T12:36:43;17.30;92.70
30379;DHT22;17168;49.164;9.060;2023-02-13T12:39:24;17.70;90.50
30379;DHT22;17168;49.164;9.060;2023-02-13T12:42:08;18.20;88.40
30379;DHT22;17168;49.164;9.060;2023-02-13T12:44:55;18.50;85.10
30379;DHT22;17168;49.164;9.060;2023-02-13T12:47:34;19.00;83.40
30379;DHT22;17168;49.164;9.060;2023-02-13T12:50:29;19.40;81.30
30379;DHT22;17168;49.164;9.060;2023-02-13T12:53:15;19.80;80.30
30379;DHT22;17168;49.164;9.060;2023-02-13T12:56:12;20.30;78.00
30379;DHT22;17168;49.164;9.060;2023-02-13T12:59:04;20.60;76.40
30379;DHT22;17168;49.164;9.060;2023-02-13T13:02:00;21.00;75.20
30379;DHT22;17168;49.164;9.060;2023-02-13T13:04:42;21.40;73.70
30379;DHT22;17168;49.164;9.060;2023-02-13T13:13:27;22.30;69.90
30379;DHT22;17168;49.164;9.060;2023-02-13T13:16:05;22.50;68.20
30379;DHT22;17168;49.164;9.060;2023-02-13T13:18:43;22.60;67.80
30379;DHT22;17168;49.164;9.060;2023-02-13T13:21:16;22.80;66.80
30379;DHT22;17168;49.164;9.060;2023-02-13T13:23:58;22.90;65.60
30379;DHT22;17168;49.164;9.060;2023-02-13T13:26:33;23.00;65.60
30379;DHT22;17168;49.164;9.060;2023-02-13T13:29:11;23.30;64.70
30379;DHT22;17168;49.164;9.060;2023-02-13T13:31:51;23.40;63.70
30379;DHT22;17168;49.164;9.060;2023-02-13T13:34:25;23.50;63.40
30379;DHT22;17168;49.164;9.060;2023-02-13T13:37:02;23.70;64.40
30379;DHT22;17168;49.164;9.060;2023-02-13T13:39:45;23.70;63.60
30379;DHT22;17168;49.164;9.060;2023-02-13T13:42:23;23.90;62.90
30379;DHT22;17168;49.164;9.060;2023-02-13T13:45:05;24.00;62.00
30379;DHT22;17168;49.164;9.060;2023-02-13T13:47:52;24.10;61.40
30379;DHT22;17168;49.164;9.060;2023-02-13T13:50:29;24.20;60.90
30379;DHT22;17168;49.164;9.060;2023-02-13T13:53:05;24.30;60.50
30379;DHT22;17168;49.164;9.060;2023-02-13T13:58:33;24.30;59.70
30379;DHT22;17168;49.164;9.060;2023-02-13T14:01:15;24.30;59.40
30379;DHT22;17168;49.164;9.060;2023-02-13T14:03:47;24.30;59.70
30379;DHT22;17168;49.164;9.060;2023-02-13T14:06:20;24.20;58.90
30379;DHT22;17168;49.164;9.060;2023-02-13T14:11:42;24.20;58.20
30379;DHT22;17168;49.164;9.060;2023-02-13T14:17:53;24.10;57.50
30379;DHT22;17168;49.164;9.060;2023-02-13T14:20:33;24.10;57.40
30379;DHT22;17168;49.164;9.060;2023-02-13T14:23:29;24.00;57.40
30379;DHT22;17168;49.164;9.060;2023-02-13T14:32:02;23.70;57.00
30379;DHT22;17168;49.164;9.060;2023-02-13T14:34:38;23.60;56.80
30379;DHT22;17168;49.164;9.060;2023-02-13T14:37:23;23.50;56.20
30379;DHT22;17168;49.164;9.060;2023-02-13T14:40:29;23.20;55.90
30379;DHT22;17168;49.164;9.060;2023-02-13T14:43:36;22.90;56.00
30379;DHT22;17168;49.164;9.060;2023-02-13T14:46:23;22.60;56.10
30379;DHT22;17168;49.164;9.060;2023-02-13T14:48:57;22.20;56.50
30379;DHT22;17168;49.164;9.060;2023-02-13T14:51:45;21.90;56.60
30379;DHT22;17168;49.164;9.060;2023-02-13T14:54:24;21.60;56.40
30379;DHT22;17168;49.164;9.060;2023-02-13T14:57:05;21.20;56.30
30379;DHT22;17168;49.164;9.060;2023-02-13T14:59:40;20.90;56.40
30379;DHT22;17168;49.164;9.060;2023-02-13T15:02:17;20.50;56.70
30379;DHT22;17168;49.164;9.060;2023-02-13T15:04:55;20.10;57.00
30379;DHT22;17168;49.164;9.060;2023-02-13T15:07:33;19.70;57.30
30379;DHT22;17168;49.164;9.060;2023-02-13T15:10:28;19.40;57.50
30379;DHT22;17168;49.164;9.060;2023-02-13T15:13:04;19.00;57.60
30379;DHT22;17168;49.164;9.060;2023-02-13T15:15:37;18.80;57.90
30379;DHT22;17168;49.164;9.060;2023-02-13T15:18:15;18.50;58.00
30379;DHT22;17168;49.164;9.060;2023-02-13T15:20:51;18.30;58.20
30379;DHT22;17168;49.164;9.060;2023-02-13T15:23:29;18.10;58.40
30379;DHT22;17168;49.164;9.060;2023-02-13T15:26:04;17.90;58.60
30379;DHT22;17168;49.164;9.060;2023-02-13T15:28:37;17.60;58.70
30379;DHT22;17168;49.164;9.060;2023-02-13T15:31:20;17.50;58.90
30379;DHT22;17168;49.164;9.060;2023-02-13T15:33:53;17.30;59.10
30379;DHT22;17168;49.164;9.060;2023-02-13T15:36:33;17.10;59.40
30379;DHT22;17168;49.164;9.060;2023-02-13T15:39:19;17.00;59.60
30379;DHT22;17168;49.164;9.060;2023-02-13T15:41:54;16.90;59.70
30379;DHT22;17168;49.164;9.060;2023-02-13T15:44:31;16.70;59.80
30379;DHT22;17168;49.164;9.060;2023-02-13T15:47:06;16.60;60.00
30379;DHT22;17168;49.164;9.060;2023-02-13T15:49:42;16.50;60.20
30379;DHT22;17168;49.164;9.060;2023-02-13T15:52:19;16.40;60.30
30379;DHT22;17168;49.164;9.060;2023-02-13T15:54:55;16.30;60.40
30379;DHT22;17168;49.164;9.060;2023-02-13T15:57:28;16.20;60.90
30379;DHT22;17168;49.164;9.060;2023-02-13T16:00:02;16.10;60.70
30379;DHT22;17168;49.164;9.060;2023-02-13T16:02:40;16.00;60.70
30379;DHT22;17168;49.164;9.060;2023-02-13T16:05:14;15.90;60.90
30379;DHT22;17168;49.164;9.060;2023-02-13T16:07:55;15.70;60.90
30379;DHT22;17168;49.164;9.060;2023-02-13T16:10:35;15.60;61.00
30379;DHT22;17168;49.164;9.060;2023-02-13T16:13:16;15.50;61.10
30379;DHT22;17168;49.164;9.060;2023-02-13T16:15:48;15.40;61.30
30379;DHT22;17168;49.164;9.060;2023-02-13T16:18:20;15.20;61.30
30379;DHT22;17168;49.164;9.060;2023-02-13T16:20:53;15.10;61.40
30379;DHT22;17168;49.164;9.060;2023-02-13T16:23:25;15.00;61.50
30379;DHT22;17168;49.164;9.060;2023-02-13T16:26:02;14.90;61.60
30379;DHT22;17168;49.164;9.060;2023-02-13T16:28:38;14.70;61.70
30379;DHT22;17168;49.164;9.060;2023-02-13T16:31:13;14.60;61.90
30379;DHT22;17168;49.164;9.060;2023-02-13T16:33:46;14.40;62.00
30379;DHT22;17168;49.164;9.060;2023-02-13T16:36:26;14.30;62.10
30379;DHT22;17168;49.164;9.060;2023-02-13T16:39:09;14.20;62.30
30379;DHT22;17168;49.164;9.060;2023-02-13T16:41:45;14.00;62.40
30379;DHT22;17168;49.164;9.060;2023-02-13T16:44:26;13.90;62.60
30379;DHT22;17168;49.164;9.060;2023-02-13T16:46:58;13.70;62.70
30379;DHT22;17168;49.164;9.060;2023-02-13T16:49:32;13.60;62.80
30379;DHT22;17168;49.164;9.060;2023-02-13T16:52:09;13.40;63.00
30379;DHT22;17168;49.164;9.060;2023-02-13T16:54:50;13.30;63.10
30379;DHT22;17168;49.164;9.060;2023-02-13T16:57:26;13.20;63.30
30379;DHT22;17168;49.164;9.060;2023-02-13T17:02:34;12.90;63.10
30379;DHT22;17168;49.164;9.060;2023-02-13T17:05:15;12.80;63.70
30379;DHT22;17168;49.164;9.060;2023-02-13T17:07:48;12.70;63.90
30379;DHT22;17168;49.164;9.060;2023-02-13T17:10:22;12.50;63.90
30379;DHT22;17168;49.164;9.060;2023-02-13T17:13:00;12.40;64.10
30379;DHT22;17168;49.164;9.060;2023-02-13T17:15:33;12.30;64.20
30379;DHT22;17168;49.164;9.060;2023-02-13T17:18:04;12.20;64.30
30379;DHT22;17168;49.164;9.060;2023-02-13T17:20:36;12.10;64.40
30379;DHT22;17168;49.164;9.060;2023-02-13T17:23:12;12.00;64.50
30379;DHT22;17168;49.164;9.060;2023-02-13T17:25:45;11.90;64.60